sensor_id;sensor_type;location;lat;lon;timestamp;pressure;altitude;pressure_sealevel;temperature;humidity
22283;BME280;11310;51.528;21.204;2023-05-10T00:01:31;100575.16;;;7.15;71.46
22283;BME280;11310;51.528;21.204;2023-05-10T00:04:00;100579.72;;;7.07;71.44
22283;BME280;11310;51.528;21.204;2023-05-10T00:06:30;100577.31;;;6.98;71.59
22283;BME280;11310;51.528;21.204;2023-05-10T00:08:59;100576.78;;;6.84;72.55
22283;BME280;11310;51.528;21.204;2023-05-10T00:11:28;100568.25;;;6.76;72.89
22283;BME280;11310;51.528;21.204;2023-05-10T00:13:57;100570.06;;;6.72;73.47
22283;BME280;11310;51.528;21.204;2023-05-10T00:16:25;100561.53;;;6.66;74.06
22283;BME280;11310;51.528;21.204;2023-05-10T00:18:54;100567.78;;;6.57;74.07
22283;BME280;11310;51.528;21.204;2023-05-10T00:21:23;100567.97;;;6.48;74.26
22283;BME280;11310;51.528;21.204;2023-05-10T00:23:53;100571.59;;;6.41;75.26
22283;BME280;11310;51.528;21.204;2023-05-10T00:26:22;100570.88;;;6.35;75.43
22283;BME280;11310;51.528;21.204;2023-05-10T00:28:54;100568.47;;;6.24;75.32
22283;BME280;11310;51.528;21.204;2023-05-10T00:31:22;100562.47;;;6.21;75.90
22283;BME280;11310;51.528;21.204;2023-05-10T00:33:51;100563.44;;;6.15;76.29
22283;BME280;11310;51.528;21.204;2023-05-10T00:36:20;100555.78;;;6.08;76.45
22283;BME280;11310;51.528;21.204;2023-05-10T00:38:48;100556.72;;;6.04;76.64
22283;BME280;11310;51.528;21.204;2023-05-10T00:41:19;100561.16;;;5.99;76.67
22283;BME280;11310;51.528;21.204;2023-05-10T00:43:48;100555.13;;;5.97;77.05
22283;BME280;11310;51.528;21.204;2023-05-10T00:46:18;100552.59;;;5.94;76.64
22283;BME280;11310;51.528;21.204;2023-05-10T00:48:47;100553.50;;;5.93;77.02
22283;BME280;11310;51.528;21.204;2023-05-10T00:51:16;100556.09;;;5.91;77.13
22283;BME280;11310;51.528;21.204;2023-05-10T00:53:45;100550.19;;;5.83;77.06
22283;BME280;11310;51.528;21.204;2023-05-10T00:56:15;100554.56;;;5.81;77.58
22283;BME280;11310;51.528;21.204;2023-05-10T00:58:45;100551.09;;;5.78;78.03
22283;BME280;11310;51.528;21.204;2023-05-10T01:01:14;100546.84;;;5.74;78.16
22283;BME280;11310;51.528;21.204;2023-05-10T01:03:44;100546.03;;;5.72;78.02
22283;BME280;11310;51.528;21.204;2023-05-10T01:06:15;100553.03;;;5.70;78.49
22283;BME280;11310;51.528;21.204;2023-05-10T01:08:45;100544.41;;;5.65;78.48
22283;BME280;11310;51.528;21.204;2023-05-10T01:11:13;100541.88;;;5.62;78.81
22283;BME280;11310;51.528;21.204;2023-05-10T01:13:52;100546.31;;;5.57;79.10
22283;BME280;11310;51.528;21.204;2023-05-10T01:16:23;100547.22;;;5.54;79.03
22283;BME280;11310;51.528;21.204;2023-05-10T01:18:53;100548.97;;;5.52;79.61
22283;BME280;11310;51.528;21.204;2023-05-10T01:21:30;100536.09;;;5.45;79.86
22283;BME280;11310;51.528;21.204;2023-05-10T01:27:19;100541.41;;;5.39;80.67
22283;BME280;11310;51.528;21.204;2023-05-10T01:30:11;100540.56;;;5.37;81.90
22283;BME280;11310;51.528;21.204;2023-05-10T01:32:53;100545.06;;;5.29;81.31
22283;BME280;11310;51.528;21.204;2023-05-10T01:35:30;100545.09;;;5.26;81.33
22283;BME280;11310;51.528;21.204;2023-05-10T01:38:05;100540.84;;;5.20;81.52
22283;BME280;11310;51.528;21.204;2023-05-10T01:40:40;100546.13;;;5.17;81.89
22283;BME280;11310;51.528;21.204;2023-05-10T01:43:21;100543.63;;;5.10;82.59
22283;BME280;11310;51.528;21.204;2023-05-10T01:45:59;100544.56;;;5.06;83.03
22283;BME280;11310;51.528;21.204;2023-05-10T01:48:34;100547.25;;;5.00;82.93
22283;BME280;11310;51.528;21.204;2023-05-10T01:51:06;100540.44;;;4.93;83.25
22283;BME280;11310;51.528;21.204;2023-05-10T01:53:37;100538.81;;;4.84;83.30
22283;BME280;11310;51.528;21.204;2023-05-10T01:56:07;100536.31;;;4.80;83.15
22283;BME280;11310;51.528;21.204;2023-05-10T01:58:39;100535.50;;;4.75;83.22
22283;BME280;11310;51.528;21.204;2023-05-10T02:01:13;100531.22;;;4.72;83.46
22283;BME280;11310;51.528;21.204;2023-05-10T02:03:45;100540.75;;;4.72;83.27
22283;BME280;11310;51.528;21.204;2023-05-10T02:06:16;100534.75;;;4.67;82.91
22283;BME280;11310;51.528;21.204;2023-05-10T02:08:49;100538.28;;;4.63;83.37
22283;BME280;11310;51.528;21.204;2023-05-10T02:11:22;100532.25;;;4.61;83.40
22283;BME280;11310;51.528;21.204;2023-05-10T02:13:51;100531.41;;;4.59;83.28
22283;BME280;11310;51.528;21.204;2023-05-10T02:16:27;100531.41;;;4.57;83.47
22283;BME280;11310;51.528;21.204;2023-05-10T02:19:01;100525.38;;;4.55;83.13
22283;BME280;11310;51.528;21.204;2023-05-10T02:21:31;100524.56;;;4.53;83.49
22283;BME280;11310;51.528;21.204;2023-05-10T02:24:02;100527.22;;;4.49;83.82
22283;BME280;11310;51.528;21.204;2023-05-10T02:26:32;100533.31;;;4.45;86.80
22283;BME280;11310;51.528;21.204;2023-05-10T02:29:03;100523.84;;;4.41;84.47
22283;BME280;11310;51.528;21.204;2023-05-10T02:31:34;100528.25;;;4.36;83.98
22283;BME280;11310;51.528;21.204;2023-05-10T02:34:08;100524.84;;;4.32;84.11
22283;BME280;11310;51.528;21.204;2023-05-10T02:36:37;100526.63;;;4.27;88.23
22283;BME280;11310;51.528;21.204;2023-05-10T02:39:07;100531.03;;;4.24;84.54
22283;BME280;11310;51.528;21.204;2023-05-10T02:41:40;100529.25;;;4.24;84.67
22283;BME280;11310;51.528;21.204;2023-05-10T02:44:10;100535.38;;;4.20;84.76
22283;BME280;11310;51.528;21.204;2023-05-10T02:46:40;100527.66;;;4.16;85.51
22283;BME280;11310;51.528;21.204;2023-05-10T02:49:11;100530.28;;;4.11;86.01
22283;BME280;11310;51.528;21.204;2023-05-10T02:51:54;100524.28;;;4.09;86.53
22283;BME280;11310;51.528;21.204;2023-05-10T02:54:32;100515.66;;;4.06;86.03
22283;BME280;11310;51.528;21.204;2023-05-10T02:57:04;100520.81;;;4.09;86.25
22283;BME280;11310;51.528;21.204;2023-05-10T02:59:33;100518.16;;;4.13;86.20
22283;BME280;11310;51.528;21.204;2023-05-10T03:02:03;100522.47;;;4.16;85.89
22283;BME280;11310;51.528;21.204;2023-05-10T03:04:33;100520.69;;;4.18;85.79
22283;BME280;11310;51.528;21.204;2023-05-10T03:07:02;100520.63;;;4.24;85.63
22283;BME280;11310;51.528;21.204;2023-05-10T03:09:31;100524.97;;;4.23;86.00
22283;BME280;11310;51.528;21.204;2023-05-10T03:12:10;100520.72;;;4.16;86.05
22283;BME280;11310;51.528;21.204;2023-05-10T03:14:47;100530.34;;;4.10;86.27
22283;BME280;11310;51.528;21.204;2023-05-10T03:17:23;100531.25;;;4.03;86.62
22283;BME280;11310;51.528;21.204;2023-05-10T03:19:55;100526.09;;;4.00;86.63
22283;BME280;11310;51.528;21.204;2023-05-10T03:22:30;100524.44;;;3.96;87.05
22283;BME280;11310;51.528;21.204;2023-05-10T03:25:00;100522.69;;;3.95;87.43
22283;BME280;11310;51.528;21.204;2023-05-10T03:27:35;100516.69;;;3.93;87.48
22283;BME280;11310;51.528;21.204;2023-05-10T03:30:07;100515.78;;;3.95;87.51
22283;BME280;11310;51.528;21.204;2023-05-10T03:32:36;100513.91;;;4.05;87.58
22283;BME280;11310;51.528;21.204;2023-05-10T03:35:08;100514.72;;;4.11;87.41
22283;BME280;11310;51.528;21.204;2023-05-10T03:37:37;100509.47;;;4.16;86.87
22283;BME280;11310;51.528;21.204;2023-05-10T03:40:07;100515.47;;;4.21;86.97
22283;BME280;11310;51.528;21.204;2023-05-10T03:42:38;100503.25;;;4.30;86.66
22283;BME280;11310;51.528;21.204;2023-05-10T03:45:08;100515.09;;;4.48;86.22
22283;BME280;11310;51.528;21.204;2023-05-10T03:47:37;100511.50;;;4.58;85.85
22283;BME280;11310;51.528;21.204;2023-05-10T03:50:08;100516.56;;;4.67;85.36
22283;BME280;11310;51.528;21.204;2023-05-10T03:52:37;100512.94;;;4.77;85.21
22283;BME280;11310;51.528;21.204;2023-05-10T03:55:06;100523.19;;;4.86;84.78
22283;BME280;11310;51.528;21.204;2023-05-10T03:57:35;100519.56;;;4.96;84.60
22283;BME280;11310;51.528;21.204;2023-05-10T04:00:06;100522.91;;;5.04;84.42
22283;BME280;11310;51.528;21.204;2023-05-10T04:02:41;100531.34;;;5.18;83.62
22283;BME280;11310;51.528;21.204;2023-05-10T04:05:18;100534.66;;;5.29;83.00
22283;BME280;11310;51.528;21.204;2023-05-10T04:07:47;100537.88;;;5.44;82.68
22283;BME280;11310;51.528;21.204;2023-05-10T04:10:17;100532.44;;;5.55;82.26
22283;BME280;11310;51.528;21.204;2023-05-10T04:12:48;100530.53;;;5.66;82.22
22283;BME280;11310;51.528;21.204;2023-05-10T04:15:17;100534.63;;;5.79;81.68
22283;BME280;11310;51.528;21.204;2023-05-10T04:17:46;100528.38;;;5.89;81.24
22283;BME280;11310;51.528;21.204;2023-05-10T04:20:18;100526.44;;;5.98;80.42
22283;BME280;11310;51.528;21.204;2023-05-10T04:22:46;100526.25;;;6.07;80.64
22283;BME280;11310;51.528;21.204;2023-05-10T04:25:15;100533.13;;;6.13;80.50
22283;BME280;11310;51.528;21.204;2023-05-10T04:27:44;100529.44;;;6.23;79.99
22283;BME280;11310;51.528;21.204;2023-05-10T04:30:14;100528.34;;;6.33;79.63
22283;BME280;11310;51.528;21.204;2023-05-10T04:32:44;100529.03;;;6.41;79.33
22283;BME280;11310;51.528;21.204;2023-05-10T04:35:13;100530.56;;;6.51;79.57
22283;BME280;11310;51.528;21.204;2023-05-10T04:37:43;100529.47;;;6.61;79.39
22283;BME280;11310;51.528;21.204;2023-05-10T04:40:12;100533.56;;;6.72;79.29
22283;BME280;11310;51.528;21.204;2023-05-10T04:42:41;100536.81;;;6.82;78.73
22283;BME280;11310;51.528;21.204;2023-05-10T04:45:10;100529.59;;;6.93;78.28
22283;BME280;11310;51.528;21.204;2023-05-10T04:47:39;100527.53;;;7.07;78.49
22283;BME280;11310;51.528;21.204;2023-05-10T04:50:08;100528.88;;;7.23;77.77
22283;BME280;11310;51.528;21.204;2023-05-10T04:52:37;100523.25;;;7.38;77.07
22283;BME280;11310;51.528;21.204;2023-05-10T04:55:07;100523.75;;;7.53;76.93
22283;BME280;11310;51.528;21.204;2023-05-10T04:57:37;100524.19;;;7.69;76.31
22283;BME280;11310;51.528;21.204;2023-05-10T05:00:06;100526.34;;;7.85;75.74
22283;BME280;11310;51.528;21.204;2023-05-10T05:02:35;100519.88;;;8.00;74.56
22283;BME280;11310;51.528;21.204;2023-05-10T05:05:05;100518.63;;;8.13;74.55
22283;BME280;11310;51.528;21.204;2023-05-10T05:07:37;100521.78;;;8.25;73.48
22283;BME280;11310;51.528;21.204;2023-05-10T05:10:08;100520.38;;;8.43;73.57
22283;BME280;11310;51.528;21.204;2023-05-10T05:12:37;100523.44;;;8.57;73.21
22283;BME280;11310;51.528;21.204;2023-05-10T05:15:07;100523.88;;;8.71;73.06
22283;BME280;11310;51.528;21.204;2023-05-10T05:17:36;100523.47;;;8.84;72.60
22283;BME280;11310;51.528;21.204;2023-05-10T05:20:08;100517.75;;;8.99;71.71
22283;BME280;11310;51.528;21.204;2023-05-10T05:22:37;100530.28;;;9.16;71.25
22283;BME280;11310;51.528;21.204;2023-05-10T05:25:08;100522.06;;;9.28;71.10
22283;BME280;11310;51.528;21.204;2023-05-10T05:27:39;100516.28;;;9.43;70.50
22283;BME280;11310;51.528;21.204;2023-05-10T05:30:09;100522.78;;;9.57;70.21
22283;BME280;11310;51.528;21.204;2023-05-10T05:32:38;100519.50;;;9.77;69.65
22283;BME280;11310;51.528;21.204;2023-05-10T05:35:08;100518.72;;;9.98;69.40
22283;BME280;11310;51.528;21.204;2023-05-10T05:37:36;100523.28;;;10.17;68.47
22283;BME280;11310;51.528;21.204;2023-05-10T05:40:11;100517.25;;;10.38;68.39
22283;BME280;11310;51.528;21.204;2023-05-10T05:42:40;100522.53;;;10.60;67.20
22283;BME280;11310;51.528;21.204;2023-05-10T05:45:09;100515.66;;;10.79;66.13
22283;BME280;11310;51.528;21.204;2023-05-10T05:47:41;100522.63;;;11.01;65.83
22283;BME280;11310;51.528;21.204;2023-05-10T05:50:10;100519.94;;;11.24;65.16
22283;BME280;11310;51.528;21.204;2023-05-10T05:52:39;100521.47;;;11.50;64.21
22283;BME280;11310;51.528;21.204;2023-05-10T05:55:09;100513.31;;;11.77;63.55
22283;BME280;11310;51.528;21.204;2023-05-10T05:57:39;100519.03;;;12.07;61.83
22283;BME280;11310;51.528;21.204;2023-05-10T06:00:08;100511.66;;;12.34;61.37
22283;BME280;11310;51.528;21.204;2023-05-10T06:02:40;100518.38;;;12.59;60.28
22283;BME280;11310;51.528;21.204;2023-05-10T06:05:10;100522.50;;;12.83;59.63
22283;BME280;11310;51.528;21.204;2023-05-10T06:07:42;100509.13;;;13.06;58.65
22283;BME280;11310;51.528;21.204;2023-05-10T06:10:12;100515.91;;;13.29;57.96
22283;BME280;11310;51.528;21.204;2023-05-10T06:12:41;100517.56;;;13.48;57.51
22283;BME280;11310;51.528;21.204;2023-05-10T06:15:10;100505.00;;;13.70;56.73
22283;BME280;11310;51.528;21.204;2023-05-10T06:17:40;100512.72;;;13.90;56.01
22283;BME280;11310;51.528;21.204;2023-05-10T06:20:12;100510.91;;;14.08;55.58
22283;BME280;11310;51.528;21.204;2023-05-10T06:22:43;100513.47;;;14.26;55.21
22283;BME280;11310;51.528;21.204;2023-05-10T06:25:14;100517.09;;;14.41;54.20
22283;BME280;11310;51.528;21.204;2023-05-10T06:27:45;100518.03;;;14.55;54.32
22283;BME280;11310;51.528;21.204;2023-05-10T06:30:19;100521.72;;;14.68;53.60
22283;BME280;11310;51.528;21.204;2023-05-10T06:32:50;100527.88;;;14.84;53.56
22283;BME280;11310;51.528;21.204;2023-05-10T06:35:19;100519.31;;;14.95;52.86
22283;BME280;11310;51.528;21.204;2023-05-10T06:37:48;100518.28;;;15.13;52.94
22283;BME280;11310;51.528;21.204;2023-05-10T06:40:19;100519.97;;;15.29;51.89
22283;BME280;11310;51.528;21.204;2023-05-10T06:42:49;100529.88;;;15.41;47.09
22283;BME280;11310;51.528;21.204;2023-05-10T06:45:19;100517.09;;;15.49;51.24
22283;BME280;11310;51.528;21.204;2023-05-10T06:47:48;100529.41;;;15.64;50.38
22283;BME280;11310;51.528;21.204;2023-05-10T06:50:17;100518.28;;;15.73;50.34
22283;BME280;11310;51.528;21.204;2023-05-10T06:52:46;100525.13;;;15.91;49.59
22283;BME280;11310;51.528;21.204;2023-05-10T06:55:19;100524.97;;;16.08;48.77
22283;BME280;11310;51.528;21.204;2023-05-10T06:57:49;100524.03;;;16.23;49.19
22283;BME280;11310;51.528;21.204;2023-05-10T07:00:19;100523.19;;;16.37;49.43
22283;BME280;11310;51.528;21.204;2023-05-10T07:02:48;100522.84;;;16.57;48.63
22283;BME280;11310;51.528;21.204;2023-05-10T07:05:17;100522.34;;;16.64;48.15
22283;BME280;11310;51.528;21.204;2023-05-10T07:07:47;100525.72;;;16.80;47.30
22283;BME280;11310;51.528;21.204;2023-05-10T07:10:16;100518.41;;;16.98;47.67
22283;BME280;11310;51.528;21.204;2023-05-10T07:12:47;100519.66;;;17.19;47.10
22283;BME280;11310;51.528;21.204;2023-05-10T07:15:17;100514.44;;;17.31;46.27
22283;BME280;11310;51.528;21.204;2023-05-10T07:17:46;100523.00;;;17.49;46.14
22283;BME280;11310;51.528;21.204;2023-05-10T07:20:15;100515.03;;;17.49;45.64
22283;BME280;11310;51.528;21.204;2023-05-10T07:22:44;100513.44;;;17.46;45.15
22283;BME280;11310;51.528;21.204;2023-05-10T07:25:13;100515.69;;;17.52;45.33
22283;BME280;11310;51.528;21.204;2023-05-10T07:27:43;100521.97;;;17.64;44.54
22283;BME280;11310;51.528;21.204;2023-05-10T07:30:14;100517.44;;;17.78;44.29
22283;BME280;11310;51.528;21.204;2023-05-10T07:32:43;100529.25;;;17.99;44.01
22283;BME280;11310;51.528;21.204;2023-05-10T07:35:12;100514.59;;;18.06;43.94
22283;BME280;11310;51.528;21.204;2023-05-10T07:37:42;100523.97;;;18.12;43.70
22283;BME280;11310;51.528;21.204;2023-05-10T07:40:11;100521.84;;;18.04;42.91
22283;BME280;11310;51.528;21.204;2023-05-10T07:42:40;100539.91;;;18.24;42.79
22283;BME280;11310;51.528;21.204;2023-05-10T07:45:09;100529.00;;;18.41;42.19
22283;BME280;11310;51.528;21.204;2023-05-10T07:47:40;100519.72;;;18.34;41.69
22283;BME280;11310;51.528;21.204;2023-05-10T07:50:09;100525.88;;;18.47;42.50
22283;BME280;11310;51.528;21.204;2023-05-10T07:52:38;100524.16;;;18.71;42.32
22283;BME280;11310;51.528;21.204;2023-05-10T07:55:08;100513.63;;;18.82;41.10
22283;BME280;11310;51.528;21.204;2023-05-10T07:57:40;100526.25;;;18.91;41.26
22283;BME280;11310;51.528;21.204;2023-05-10T08:00:12;100517.50;;;18.89;40.80
22283;BME280;11310;51.528;21.204;2023-05-10T08:02:44;100518.84;;;19.07;41.66
22283;BME280;11310;51.528;21.204;2023-05-10T08:05:13;100520.97;;;19.38;40.91
22283;BME280;11310;51.528;21.204;2023-05-10T08:07:43;100517.84;;;19.44;40.64
22283;BME280;11310;51.528;21.204;2023-05-10T08:10:12;100527.13;;;19.39;40.93
22283;BME280;11310;51.528;21.204;2023-05-10T08:12:41;100524.94;;;19.56;40.50
22283;BME280;11310;51.528;21.204;2023-05-10T08:15:11;100522.16;;;19.58;41.04
22283;BME280;11310;51.528;21.204;2023-05-10T08:17:40;100512.78;;;19.76;40.67
22283;BME280;11310;51.528;21.204;2023-05-10T08:20:10;100502.91;;;20.00;39.75
22283;BME280;11310;51.528;21.204;2023-05-10T08:22:40;100504.53;;;20.13;39.56
22283;BME280;11310;51.528;21.204;2023-05-10T08:25:09;100519.34;;;20.28;38.95
22283;BME280;11310;51.528;21.204;2023-05-10T08:27:38;100521.69;;;19.98;39.01
22283;BME280;11310;51.528;21.204;2023-05-10T08:30:08;100512.41;;;19.80;39.27
22283;BME280;11310;51.528;21.204;2023-05-10T08:32:38;100509.41;;;20.19;39.25
22283;BME280;11310;51.528;21.204;2023-05-10T08:35:07;100514.75;;;20.52;38.25
22283;BME280;11310;51.528;21.204;2023-05-10T08:37:37;100518.25;;;20.75;38.19
22283;BME280;11310;51.528;21.204;2023-05-10T08:40:07;100520.28;;;20.82;38.13
22283;BME280;11310;51.528;21.204;2023-05-10T08:42:44;100513.28;;;20.59;36.80
22283;BME280;11310;51.528;21.204;2023-05-10T08:45:18;100513.91;;;20.41;37.76
22283;BME280;11310;51.528;21.204;2023-05-10T08:47:55;100517.16;;;20.33;37.24
22283;BME280;11310;51.528;21.204;2023-05-10T08:50:25;100517.16;;;20.44;37.48
22283;BME280;11310;51.528;21.204;2023-05-10T08:52:57;100515.97;;;20.70;36.65
22283;BME280;11310;51.528;21.204;2023-05-10T08:55:27;100498.13;;;20.93;36.87
22283;BME280;11310;51.528;21.204;2023-05-10T08:57:56;100510.78;;;21.23;37.01
22283;BME280;11310;51.528;21.204;2023-05-10T09:00:25;100507.63;;;21.60;36.87
22283;BME280;11310;51.528;21.204;2023-05-10T09:02:54;100500.91;;;21.66;36.56
22283;BME280;11310;51.528;21.204;2023-05-10T09:05:23;100504.38;;;21.57;36.91
22283;BME280;11310;51.528;21.204;2023-05-10T09:07:52;100489.44;;;21.86;36.32
22283;BME280;11310;51.528;21.204;2023-05-10T09:10:23;100486.88;;;22.05;36.19
22283;BME280;11310;51.528;21.204;2023-05-10T09:12:56;100496.31;;;22.09;35.34
22283;BME280;11310;51.528;21.204;2023-05-10T09:15:25;100494.91;;;21.84;36.24
22283;BME280;11310;51.528;21.204;2023-05-10T09:17:54;100495.59;;;22.07;36.30
22283;BME280;11310;51.528;21.204;2023-05-10T09:20:24;100497.00;;;22.52;36.07
22283;BME280;11310;51.528;21.204;2023-05-10T09:22:52;100498.78;;;22.72;34.79
22283;BME280;11310;51.528;21.204;2023-05-10T09:25:23;100491.06;;;22.48;35.17
22283;BME280;11310;51.528;21.204;2023-05-10T09:27:52;100480.56;;;22.36;35.11
22283;BME280;11310;51.528;21.204;2023-05-10T09:30:25;100493.63;;;22.50;34.91
22283;BME280;11310;51.528;21.204;2023-05-10T09:32:56;100491.19;;;22.77;35.03
22283;BME280;11310;51.528;21.204;2023-05-10T09:35:27;100483.91;;;22.98;34.23
22283;BME280;11310;51.528;21.204;2023-05-10T09:37:58;100479.81;;;22.54;34.56
22283;BME280;11310;51.528;21.204;2023-05-10T09:40:29;100486.34;;;22.61;34.84
22283;BME280;11310;51.528;21.204;2023-05-10T09:43:01;100490.44;;;22.75;34.74
22283;BME280;11310;51.528;21.204;2023-05-10T09:45:31;100491.81;;;23.18;34.27
22283;BME280;11310;51.528;21.204;2023-05-10T09:48:04;100492.88;;;23.27;34.23
22283;BME280;11310;51.528;21.204;2023-05-10T09:50:34;100483.88;;;23.56;33.99
22283;BME280;11310;51.528;21.204;2023-05-10T09:53:03;100488.06;;;23.68;33.35
22283;BME280;11310;51.528;21.204;2023-05-10T09:55:41;100483.97;;;23.64;33.16
22283;BME280;11310;51.528;21.204;2023-05-10T09:58:12;100480.31;;;23.75;33.98
22283;BME280;11310;51.528;21.204;2023-05-10T10:00:44;100473.66;;;23.98;33.70
22283;BME280;11310;51.528;21.204;2023-05-10T10:03:16;100470.56;;;24.02;33.42
22283;BME280;11310;51.528;21.204;2023-05-10T10:05:46;100468.19;;;23.90;33.74
22283;BME280;11310;51.528;21.204;2023-05-10T10:08:15;100480.44;;;23.83;33.50
22283;BME280;11310;51.528;21.204;2023-05-10T10:10:46;100474.41;;;23.81;32.96
22283;BME280;11310;51.528;21.204;2023-05-10T10:13:17;100466.78;;;23.67;33.35
22283;BME280;11310;51.528;21.204;2023-05-10T10:15:47;100456.91;;;23.58;33.77
22283;BME280;11310;51.528;21.204;2023-05-10T10:18:19;100454.75;;;23.99;33.67
22283;BME280;11310;51.528;21.204;2023-05-10T10:20:56;100456.91;;;23.96;33.33
22283;BME280;11310;51.528;21.204;2023-05-10T10:23:26;100460.06;;;24.28;33.47
22283;BME280;11310;51.528;21.204;2023-05-10T10:25:57;100452.34;;;24.42;32.53
22283;BME280;11310;51.528;21.204;2023-05-10T10:28:43;100450.53;;;24.43;32.25
22283;BME280;11310;51.528;21.204;2023-05-10T10:31:24;100448.16;;;24.67;31.54
22283;BME280;11310;51.528;21.204;2023-05-10T10:33:59;100445.47;;;24.67;32.08
22283;BME280;11310;51.528;21.204;2023-05-10T10:36:30;100445.22;;;24.87;32.32
22283;BME280;11310;51.528;21.204;2023-05-10T10:39:01;100443.81;;;24.83;32.52
22283;BME280;11310;51.528;21.204;2023-05-10T10:41:34;100437.09;;;24.79;32.41
22283;BME280;11310;51.528;21.204;2023-05-10T10:44:22;100433.66;;;24.60;31.03
22283;BME280;11310;51.528;21.204;2023-05-10T10:46:59;100428.16;;;24.52;31.90
22283;BME280;11310;51.528;21.204;2023-05-10T10:49:31;100426.75;;;24.84;33.06
22283;BME280;11310;51.528;21.204;2023-05-10T10:52:14;100425.66;;;24.77;29.29
22283;BME280;11310;51.528;21.204;2023-05-10T10:54:53;100432.03;;;24.76;31.61
22283;BME280;11310;51.528;21.204;2023-05-10T10:57:28;100431.03;;;24.77;31.47
22283;BME280;11310;51.528;21.204;2023-05-10T11:00:23;100425.06;;;24.56;31.50
22283;BME280;11310;51.528;21.204;2023-05-10T11:02:53;100408.91;;;24.66;32.49
22283;BME280;11310;51.528;21.204;2023-05-10T11:05:39;100421.19;;;24.86;30.47
22283;BME280;11310;51.528;21.204;2023-05-10T11:08:29;100389.41;;;25.08;32.31
22283;BME280;11310;51.528;21.204;2023-05-10T11:11:05;100410.78;;;25.00;30.39
22283;BME280;11310;51.528;21.204;2023-05-10T11:13:43;100404.81;;;24.89;31.85
22283;BME280;11310;51.528;21.204;2023-05-10T11:16:17;100407.13;;;25.19;31.99
22283;BME280;11310;51.528;21.204;2023-05-10T11:18:57;100405.03;;;25.13;31.13
22283;BME280;11310;51.528;21.204;2023-05-10T11:21:26;100399.91;;;25.19;31.70
22283;BME280;11310;51.528;21.204;2023-05-10T11:23:56;100414.09;;;24.94;32.17
22283;BME280;11310;51.528;21.204;2023-05-10T11:26:30;100402.72;;;25.18;32.00
22283;BME280;11310;51.528;21.204;2023-05-10T11:29:01;100402.50;;;25.64;31.48
22283;BME280;11310;51.528;21.204;2023-05-10T11:31:32;100404.94;;;25.75;30.92
22283;BME280;11310;51.528;21.204;2023-05-10T11:34:01;100400.13;;;25.61;31.09
22283;BME280;11310;51.528;21.204;2023-05-10T11:36:35;100403.69;;;25.44;29.99
22283;BME280;11310;51.528;21.204;2023-05-10T11:39:05;100399.44;;;25.24;31.05
22283;BME280;11310;51.528;21.204;2023-05-10T11:41:34;100389.47;;;25.16;30.92
22283;BME280;11310;51.528;21.204;2023-05-10T11:44:05;100407.81;;;25.03;31.10
22283;BME280;11310;51.528;21.204;2023-05-10T11:46:37;100398.47;;;25.07;31.30
22283;BME280;11310;51.528;21.204;2023-05-10T11:49:07;100402.50;;;24.94;31.32
22283;BME280;11310;51.528;21.204;2023-05-10T11:51:36;100396.22;;;25.03;31.03
22283;BME280;11310;51.528;21.204;2023-05-10T11:54:08;100394.31;;;24.95;30.96
22283;BME280;11310;51.528;21.204;2023-05-10T11:56:38;100391.16;;;25.17;31.00
22283;BME280;11310;51.528;21.204;2023-05-10T11:59:08;100390.25;;;25.44;31.39
22283;BME280;11310;51.528;21.204;2023-05-10T12:01:37;100398.16;;;25.71;30.72
22283;BME280;11310;51.528;21.204;2023-05-10T12:04:06;100398.28;;;25.87;30.70
22283;BME280;11310;51.528;21.204;2023-05-10T12:06:39;100405.81;;;26.01;30.04
22283;BME280;11310;51.528;21.204;2023-05-10T12:09:09;100402.53;;;26.15;29.85
22283;BME280;11310;51.528;21.204;2023-05-10T12:11:39;100387.34;;;26.06;29.69
22283;BME280;11310;51.528;21.204;2023-05-10T12:14:12;100388.72;;;25.67;30.06
22283;BME280;11310;51.528;21.204;2023-05-10T12:16:44;100378.56;;;25.53;29.99
22283;BME280;11310;51.528;21.204;2023-05-10T12:19:18;100378.25;;;25.21;30.01
22283;BME280;11310;51.528;21.204;2023-05-10T12:21:48;100376.81;;;25.09;30.96
22283;BME280;11310;51.528;21.204;2023-05-10T12:24:18;100386.16;;;25.22;31.21
22283;BME280;11310;51.528;21.204;2023-05-10T12:26:50;100383.03;;;25.27;30.32
22283;BME280;11310;51.528;21.204;2023-05-10T12:29:21;100381.41;;;25.16;30.75
22283;BME280;11310;51.528;21.204;2023-05-10T12:31:54;100363.81;;;25.22;29.29
22283;BME280;11310;51.528;21.204;2023-05-10T12:34:27;100379.22;;;25.29;30.07
22283;BME280;11310;51.528;21.204;2023-05-10T12:36:59;100381.81;;;25.39;30.16
22283;BME280;11310;51.528;21.204;2023-05-10T12:39:38;100379.03;;;25.31;28.94
22283;BME280;11310;51.528;21.204;2023-05-10T12:42:07;100363.06;;;25.12;30.15
22283;BME280;11310;51.528;21.204;2023-05-10T12:44:38;100364.00;;;24.41;31.00
22283;BME280;11310;51.528;21.204;2023-05-10T12:47:07;100354.69;;;24.35;30.76
22283;BME280;11310;51.528;21.204;2023-05-10T12:49:36;100360.22;;;24.61;31.18
22283;BME280;11310;51.528;21.204;2023-05-10T12:52:05;100357.56;;;24.96;30.01
22283;BME280;11310;51.528;21.204;2023-05-10T12:54:34;100364.63;;;24.97;30.15
22283;BME280;11310;51.528;21.204;2023-05-10T12:57:03;100365.38;;;24.89;30.51
22283;BME280;11310;51.528;21.204;2023-05-10T12:59:32;100368.31;;;24.96;29.95
22283;BME280;11310;51.528;21.204;2023-05-10T13:02:06;100366.75;;;24.76;30.33
22283;BME280;11310;51.528;21.204;2023-05-10T13:04:36;100362.28;;;24.67;30.68
22283;BME280;11310;51.528;21.204;2023-05-10T13:07:07;100358.63;;;24.68;30.92
22283;BME280;11310;51.528;21.204;2023-05-10T13:09:36;100359.16;;;24.71;30.32